BERRYESSA (BER)

Elevation: 456' · PUTAH CR basin · Operator: US Bureau of Reclamation

Provisional data, subject to change.
Query executed Thursday at 23:16:04   clock

Select a sensor type for a plot of data.
Note: Reservoir Flows are daily averages.

Earlier

Date RES ELE    STORAGE    OUTFLOW    INFLOW    PPT INC   
 FEET   AF   CFS   CFS   INCHES  
03/26/2014 414.99 1109980 187 298 0.35
03/27/2014 414.97 1109652 154 40 0.08
03/28/2014 414.96 1109489 226 155 0.01
03/29/2014 415.03 1110634 235 835 0.16
03/30/2014 415.08 1111452 200 646 0.33
03/31/2014 415.10 1111780 152 357 0.00
04/01/2014 415.35 1115875 107 2172 0.76
04/02/2014 415.53 1118828 90 1579 0.83
04/03/2014 415.61 1120141 107 834 0.02
04/04/2014 415.68 1121291 120 743 0.08
04/05/2014 415.66 1120962 125 8 0.09
04/06/2014 415.70 1121619 125 516 0.00
04/07/2014 415.70 1121619 125 195 0.00
04/08/2014 415.71 1121784 132 285 0.00
04/09/2014 415.71 1121784 145 221 0.00
04/10/2014 415.69 1121455 162 93 0.00
04/11/2014 415.70 1121619 165 340 0.00
04/12/2014 415.67 1121127 165 -13 0.00
04/13/2014 415.65 1120798 171 102 0.00
04/14/2014 415.62 1120305 205 59 0.00
04/15/2014 415.61 1120141 239 253 0.00
04/16/2014 415.59 1119813 257 173 0.00
04/17/2014 415.53 1118828 274 -137 0.00
04/18/2014 415.52 1118664 323 343 0.00
04/19/2014 415.47 1117843 340 29 0.00
04/20/2014 415.42 1117023 340 24 0.00
04/21/2014 -- -- -- -- --
04/22/2014 -- -- -- -- --
04/23/2014 -- -- -- -- --
04/24/2014 -- -- -- -- --

Later | Latest

Warning! This data is preliminary and subject to revision.

Download Data Now Download Data Now | Show BER Map | Plot BER Data | 1 Month BER Data | Real-Time BER Data | BER Info